Time,TemperatureF,DewpointF,PressureIn,WindDirection,WindDirectionDegrees,WindSpeedMPH,WindSpeedGustMPH,Humidity,HourlyPrecipIn,Conditions,Clouds,dailyrainin,SoftwareType,DateUTC
2013-08-23 00:12:00,61.0,50.0,-100.00,NW,310,2.0,3.0,67,-99.99,,,0.00,,2013-08-23 06:12:00,
2013-08-23 00:52:00,60.0,50.0,-100.00,WNW,295,17.0,22.0,71,-99.99,,,0.00,,2013-08-23 06:52:00,
2013-08-23 01:01:00,60.0,50.0,-100.00,WNW,295,17.0,22.0,71,-99.99,,,0.00,,2013-08-23 07:01:00,
2013-08-23 01:12:00,60.0,50.0,-100.00,WNW,295,17.0,22.0,71,-99.99,,,0.00,,2013-08-23 07:12:00,
2013-08-23 01:20:00,59.0,51.0,-100.00,WNW,295,10.0,15.0,73,-99.99,,,0.00,,2013-08-23 07:20:00,
2013-08-23 01:42:00,59.0,50.0,-100.00,WNW,285,17.0,26.0,72,-99.99,,,0.00,,2013-08-23 07:42:00,
2013-08-23 01:52:00,59.0,51.0,-100.00,WNW,295,10.0,15.0,73,-99.99,,,0.00,,2013-08-23 07:52:00,
2013-08-23 02:12:00,59.0,51.0,-100.00,WNW,295,10.0,15.0,73,-99.99,,,0.00,,2013-08-23 08:12:00,
2013-08-23 02:42:00,60.0,50.0,-100.00,South,180,6.0,9.0,68,-99.99,,,0.00,,2013-08-23 08:42:00,
2013-08-23 02:52:00,62.0,48.0,-100.00,NW,310,3.0,6.0,61,-99.99,,,0.00,,2013-08-23 08:52:00,
2013-08-23 03:12:00,59.0,50.0,-100.00,West,260,4.0,7.0,73,-99.99,,,0.00,,2013-08-23 09:12:00,
2013-08-23 03:21:00,59.0,50.0,-100.00,West,260,4.0,7.0,73,-99.99,,,0.00,,2013-08-23 09:21:00,
2013-08-23 03:43:00,59.0,50.0,-100.00,West,260,4.0,7.0,73,-99.99,,,0.00,,2013-08-23 09:43:00,
2013-08-23 03:53:00,58.0,49.0,-100.00,NNE,15,4.0,6.0,73,-99.99,,,0.00,,2013-08-23 09:53:00,
2013-08-23 04:13:00,58.0,49.0,-100.00,NNE,15,4.0,6.0,73,-99.99,,,0.00,,2013-08-23 10:13:00,
2013-08-23 04:42:00,59.0,48.0,-100.00,NNW,335,3.0,6.0,67,-99.99,,,0.00,,2013-08-23 10:42:00,
2013-08-23 04:52:00,57.0,48.0,-100.00,NNW,330,4.0,6.0,71,-99.99,,,0.00,,2013-08-23 10:52:00,
2013-08-23 05:11:00,57.0,48.0,-100.00,NNW,330,4.0,6.0,71,-99.99,,,0.00,,2013-08-23 11:11:00,
2013-08-23 05:20:00,58.0,47.0,-100.00,WNW,295,12.0,16.0,68,-99.99,,,0.00,,2013-08-23 11:20:00,
2013-08-23 05:42:00,57.0,48.0,-100.00,WNW,300,12.0,14.0,73,-99.99,,,0.00,,2013-08-23 11:42:00,
2013-08-23 05:52:00,58.0,47.0,-100.00,WNW,295,12.0,16.0,68,-99.99,,,0.00,,2013-08-23 11:52:00,
2013-08-23 06:11:00,58.0,47.0,-100.00,WNW,295,12.0,16.0,68,-99.99,,,0.00,,2013-08-23 12:11:00,
2013-08-23 06:42:00,59.0,47.0,-100.00,WNW,290,14.0,17.0,64,-99.99,,,0.00,,2013-08-23 12:42:00,
2013-08-23 06:52:00,59.0,46.0,-100.00,WNW,290,14.0,17.0,60,-99.99,,,0.00,,2013-08-23 12:52:00,
2013-08-23 07:11:00,55.0,46.0,-100.00,West,265,1.0,9.0,70,-99.99,,,0.00,,2013-08-23 13:11:00,
2013-08-23 07:20:00,58.0,47.0,-100.00,East,80,3.0,3.0,67,-99.99,,,0.00,,2013-08-23 13:20:00,
2013-08-23 07:22:00,55.0,46.0,-100.00,West,265,1.0,9.0,70,-99.99,,,0.00,,2013-08-23 13:22:00,
2013-08-23 07:42:00,56.0,47.0,-100.00,East,80,4.0,7.0,70,-99.99,,,0.00,,2013-08-23 13:42:00,
2013-08-23 07:52:00,58.0,47.0,-100.00,East,80,3.0,3.0,67,-99.99,,,0.00,,2013-08-23 13:52:00,
2013-08-23 08:12:00,58.0,47.0,-100.00,East,80,3.0,3.0,67,-99.99,,,0.00,,2013-08-23 14:12:00,
2013-08-23 12:12:00,69.0,46.0,-100.00,West,270,17.0,22.0,45,-99.99,,,0.00,,2013-08-23 18:12:00,
2013-08-23 12:22:00,69.0,46.0,-100.00,West,270,17.0,22.0,45,-99.99,,,0.00,,2013-08-23 18:22:00,
2013-08-23 12:42:00,72.0,46.0,-100.00,West,260,18.0,21.0,40,-99.99,,,0.00,,2013-08-23 18:42:00,
2013-08-23 12:52:00,73.0,47.0,-100.00,WNW,295,15.0,23.0,40,-99.99,,,0.00,,2013-08-23 18:52:00,
2013-08-23 13:11:00,75.0,47.0,-100.00,West,275,12.0,21.0,36,-99.99,,,0.00,,2013-08-23 19:11:00,
2013-08-23 13:22:00,75.0,47.0,-100.00,West,275,12.0,21.0,36,-99.99,,,0.00,,2013-08-23 19:22:00,
2013-08-23 13:42:00,75.0,46.0,-100.00,West,280,7.0,12.0,36,-99.99,,,0.00,,2013-08-23 19:42:00,
2013-08-23 13:52:00,75.0,46.0,-100.00,WNW,300,8.0,14.0,36,-99.99,,,0.00,,2013-08-23 19:52:00,
2013-08-23 14:12:00,77.0,43.0,-100.00,WNW,295,11.0,17.0,29,-99.99,,,0.00,,2013-08-23 20:12:00,
2013-08-23 14:42:00,77.0,44.0,-100.00,West,265,11.0,17.0,30,-99.99,,,-99.99,,2013-08-23 20:42:00,
2013-08-23 14:52:00,77.0,43.0,-100.00,WNW,290,12.0,17.0,30,-99.99,,,0.00,,2013-08-23 20:52:00,
2013-08-23 15:11:00,77.0,42.0,-100.00,West,275,12.0,16.0,29,-99.99,,,0.00,,2013-08-23 21:11:00,
2013-08-23 15:21:00,77.0,42.0,-100.00,West,275,12.0,16.0,29,-99.99,,,0.00,,2013-08-23 21:21:00,
2013-08-23 15:43:00,76.0,43.0,-100.00,WNW,290,11.0,18.0,31,-99.99,,,-99.99,,2013-08-23 21:43:00,
2013-08-23 15:54:00,75.0,42.0,-100.00,West,260,12.0,18.0,31,-99.99,,,0.00,,2013-08-23 21:54:00,
2013-08-23 16:13:00,73.0,43.0,-100.00,West,275,11.0,15.0,33,-99.99,,,0.00,,2013-08-23 22:13:00,
2013-08-23 16:24:00,73.0,43.0,-100.00,West,275,11.0,15.0,33,-99.99,,,0.00,,2013-08-23 22:24:00,
2013-08-23 16:43:00,72.0,42.0,-100.00,West,270,16.0,19.0,33,-99.99,,,-99.99,,2013-08-23 22:43:00,
2013-08-23 16:53:00,66.0,47.0,-100.00,West,265,28.0,43.0,50,-99.99,,,0.00,,2013-08-23 22:53:00,
2013-08-23 17:54:00,57.0,46.0,-100.00,West,260,16.0,19.0,67,-99.99,,,0.00,,2013-08-23 23:54:00,
2013-08-23 18:02:00,57.0,46.0,-100.00,West,260,16.0,19.0,67,-99.99,,,0.00,,2013-08-24 00:02:00,
2013-08-23 18:21:00,57.0,52.0,-100.00,South,190,4.0,8.0,83,-99.99,,,0.00,,2013-08-24 00:21:00,
2013-08-23 18:43:00,57.0,51.0,-100.00,SW,220,1.0,5.0,78,-99.99,,,0.00,,2013-08-24 00:43:00,
2013-08-23 18:53:00,59.0,49.0,-100.00,NW,325,1.0,3.0,69,-99.99,,,0.00,,2013-08-24 00:53:00,
2013-08-23 19:11:00,60.0,52.0,-100.00,SSE,150,4.0,6.0,76,-99.99,,,0.00,,2013-08-24 01:11:00,
2013-08-23 19:22:00,60.0,52.0,-100.00,SSE,150,4.0,6.0,76,-99.99,,,0.00,,2013-08-24 01:22:00,
2013-08-23 19:42:00,57.0,51.0,-100.00,SE,140,8.0,11.0,78,-99.99,,,0.00,,2013-08-24 01:42:00,
2013-08-23 19:53:00,57.0,51.0,-100.00,South,175,9.0,12.0,79,-99.99,,,0.00,,2013-08-24 01:53:00,
2013-08-23 20:11:00,57.0,50.0,-100.00,SSE,155,4.0,12.0,76,-99.99,,,0.00,,2013-08-24 02:11:00,
2013-08-23 20:22:00,57.0,50.0,-100.00,SSE,155,4.0,12.0,76,-99.99,,,0.00,,2013-08-24 02:22:00,
2013-08-23 20:42:00,57.0,49.0,-100.00,SW,225,2.0,4.0,73,-99.99,,,0.00,,2013-08-24 02:42:00,
2013-08-23 20:52:00,55.0,48.0,-100.00,SSW,210,6.0,9.0,77,-99.99,,,0.00,,2013-08-24 02:52:00,
2013-08-23 21:02:00,55.0,48.0,-100.00,SSW,210,6.0,9.0,77,-99.99,,,0.00,,2013-08-24 03:02:00,
2013-08-23 21:22:00,56.0,48.0,-100.00,WNW,290,6.0,12.0,74,-99.99,,,0.00,,2013-08-24 03:22:00,
2013-08-23 21:44:00,58.0,46.0,-100.00,SW,220,2.0,4.0,64,-99.99,,,0.00,,2013-08-24 03:44:00,
2013-08-23 21:54:00,61.0,46.0,-100.00,South,170,1.0,3.0,58,-99.99,,,0.00,,2013-08-24 03:54:00,
2013-08-23 22:04:00,61.0,46.0,-100.00,South,170,1.0,3.0,58,-99.99,,,0.00,,2013-08-24 04:04:00,
2013-08-23 22:44:00,55.0,48.0,-100.00,NE,40,1.0,6.0,75,-99.99,,,0.00,,2013-08-24 04:44:00,
2013-08-23 22:53:00,55.0,48.0,-100.00,South,170,1.0,3.0,77,-99.99,,,0.00,,2013-08-24 04:53:00,
2013-08-23 23:13:00,57.0,48.0,-100.00,NE,35,1.0,2.0,71,-99.99,,,0.00,,2013-08-24 05:13:00,
2013-08-23 23:41:00,56.0,48.0,-100.00,East,85,0.0,3.0,76,-99.99,,,-99.99,,2013-08-24 05:41:00,
2013-08-23 23:43:00,55.0,48.0,-100.00,ENE,65,3.0,4.0,75,-99.99,,,0.00,,2013-08-24 05:43:00,
2013-08-23 23:53:00,56.0,48.0,-100.00,NE,45,2.0,3.0,75,-99.99,,,0.00,,2013-08-24 05:53:00,